OIIK  Qazvin Airport

Add Bookmark

Qazvin, Iran

Status
Operational
Latitude Longitude
36° 14' 24" N 50° 2' 49" E
36.240101 50.047100
Local (DST + 5) UTC (GMT + 4)
Nov 27, 2014 08:23 Nov 27, 2014 16:53
Sunrise-Sunset Local UTC
Begin Civil Twilight 06:29 02:59
Sunrise 06:57 03:27
Sunset 04:57 13:27
End Civil Twilight 05:25 13:55

Current Weather

METAR Observed MVFR
OIIK 271600Z 10006KT 6000 FEW040 BKN090 06/05 Q1019 Thu, Nov 27, 2014 @ 16:00 UTC
(53 Minutes ago)
Marginal Visual Flight Rules
Wind Visibility Clouds Conditions
100° at 6 knots (11 kph) 6000 meters
  • Few at 4,000' AGL
  • Broken at 9,000' AGL
  • No significant weather
Temperatures Readings Precipitation
Current Temp 6°C (43°F)
Dewpoint 5°C (41°F)
Humidity 93%
Altimeter 30.09"Hg
Sea Level Pressure 1019mb
Field Elevation 4192.91'
None Recorded

Additional weather within a 92.6km radius of OIIK

Map ICAO Location
OIIP 87km S (126°)

24 Hour Weather History

Loading
-

24 Hour Weather Graphs

Loading
-

CheckWX.com is intended as a tool to help pilots better visualize weather data. It is not intended as a substitute for an official weather briefing obtained from a Flight Service Station. CheckWX.com does not meet the FAA requirements for an official pre-flight weather briefing. Therefore, it's important that pilots still call and obtain an official FSS pre-flight weather briefing.